createdAt,value
2023-04-26T00:01:43.207Z,97478.87
2023-04-26T00:04:10.278Z,97492.69
2023-04-26T00:06:37.572Z,97492.84
2023-04-26T00:09:05.266Z,97488.28
2023-04-26T00:11:32.141Z,97485.22
2023-04-26T00:13:59.751Z,97486.44
2023-04-26T00:16:26.668Z,97483.44
2023-04-26T00:18:54.721Z,97471.13
2023-04-26T00:21:21.807Z,97491.56
2023-04-26T00:23:48.773Z,97488.44
2023-04-26T00:26:15.674Z,97481.28
2023-04-26T00:28:42.662Z,97488.41
2023-04-26T00:31:16.869Z,97485.63
2023-04-26T00:33:44.368Z,97495.38
2023-04-26T00:36:11.418Z,97500.09
2023-04-26T00:38:38.228Z,97493.09
2023-04-26T00:41:05.652Z,97494.88
2023-04-26T00:43:32.494Z,97489.16
2023-04-26T00:45:59.183Z,97499.19
2023-04-26T00:48:26.467Z,97503.53
2023-04-26T00:50:53.366Z,97506.72
2023-04-26T00:53:21.061Z,97504.59
2023-04-26T00:55:48.266Z,97509.28
2023-04-26T00:58:15.142Z,97516.28
2023-04-26T01:00:41.815Z,97513.06
2023-04-26T01:03:08.950Z,97515.38
2023-04-26T01:05:36.938Z,97513.75
2023-04-26T01:08:04.956Z,97516.72
2023-04-26T01:10:35.448Z,97523.13
2023-04-26T01:13:06.091Z,97517.63
2023-04-26T01:15:33.716Z,97513.16
2023-04-26T01:18:00.764Z,97517.88
2023-04-26T01:20:27.742Z,97527.50
2023-04-26T01:22:54.637Z,97537.81
2023-04-26T01:25:21.641Z,97535.69
2023-04-26T01:27:48.496Z,97537.59
2023-04-26T01:30:15.173Z,97540.44
2023-04-26T01:32:42.071Z,97544.09
2023-04-26T01:35:09.529Z,97548.63
2023-04-26T01:37:36.491Z,97551.28
2023-04-26T01:40:06.552Z,97547.03
2023-04-26T01:42:33.463Z,97558.66
2023-04-26T01:45:00.362Z,97555.81
2023-04-26T01:47:27.766Z,97559.00
2023-04-26T01:49:54.708Z,97553.91
2023-04-26T01:52:22.839Z,97558.78
2023-04-26T01:54:49.751Z,97567.78
2023-04-26T01:57:16.763Z,97552.66
2023-04-26T01:59:43.682Z,97573.00
2023-04-26T02:02:10.777Z,97570.78
2023-04-26T02:04:37.832Z,97570.31
2023-04-26T02:07:04.704Z,97580.50
2023-04-26T02:09:31.435Z,97581.62
2023-04-26T02:11:58.287Z,97583.34
2023-04-26T02:14:25.083Z,97578.94
2023-04-26T02:16:52.103Z,97573.03
2023-04-26T02:19:19.162Z,97585.94
2023-04-26T02:21:56.469Z,97582.34
2023-04-26T02:24:23.970Z,97588.97
2023-04-26T02:26:52.008Z,97583.28
2023-04-26T02:29:21.219Z,97586.19
2023-04-26T02:31:53.815Z,97587.06
2023-04-26T02:34:20.866Z,97585.63
2023-04-26T02:36:48.808Z,97585.56
2023-04-26T02:39:15.790Z,97590.47
2023-04-26T02:41:42.640Z,97596.28
2023-04-26T02:44:09.357Z,97595.06
2023-04-26T02:46:36.329Z,97596.47
2023-04-26T02:49:03.346Z,97594.47
2023-04-26T02:51:30.277Z,97602.81
2023-04-26T02:53:57.148Z,97594.47
2023-04-26T02:56:24.165Z,97604.47
2023-04-26T02:58:51.646Z,97611.00
2023-04-26T03:01:19.051Z,97610.03
2023-04-26T03:03:45.982Z,97614.09
2023-04-26T03:06:12.968Z,97620.25
2023-04-26T03:08:39.624Z,97618.59
2023-04-26T03:11:07.026Z,97627.22
2023-04-26T03:13:33.907Z,97630.28
2023-04-26T03:16:00.867Z,97629.19
2023-04-26T03:18:27.780Z,97624.25
2023-04-26T03:20:54.647Z,97624.66
2023-04-26T03:23:24.468Z,97628.69
2023-04-26T03:25:51.944Z,97636.84
2023-04-26T03:28:18.819Z,97638.78
2023-04-26T03:30:46.056Z,97634.25
2023-04-26T03:33:13.816Z,97635.72
2023-04-26T03:35:40.902Z,97631.59
2023-04-26T03:38:07.792Z,97637.44
2023-04-26T03:40:34.714Z,97636.16
2023-04-26T03:43:01.788Z,97644.16
2023-04-26T03:45:28.756Z,97643.50
2023-04-26T03:47:56.913Z,97642.91
2023-04-26T03:50:23.812Z,97651.50
2023-04-26T03:52:50.616Z,97663.22
2023-04-26T03:55:17.545Z,97657.56
2023-04-26T03:57:44.392Z,97657.31
2023-04-26T04:00:14.476Z,97666.06
2023-04-26T04:02:41.971Z,97665.34
2023-04-26T04:05:09.626Z,97669.97
2023-04-26T04:07:36.764Z,97681.72
2023-04-26T04:10:04.199Z,97676.56
2023-04-26T04:12:31.156Z,97677.44
2023-04-26T04:14:58.055Z,97680.97
2023-04-26T04:17:24.948Z,97677.53
2023-04-26T04:19:51.829Z,97680.19
2023-04-26T04:22:18.680Z,97679.13
2023-04-26T04:24:45.747Z,97684.84
2023-04-26T04:27:12.622Z,97683.75
2023-04-26T04:29:41.078Z,97685.16
2023-04-26T04:32:08.212Z,97684.28
2023-04-26T04:34:36.415Z,97693.50
2023-04-26T04:37:04.461Z,97691.06
2023-04-26T04:39:31.469Z,97690.00
2023-04-26T04:41:58.843Z,97700.63
2023-04-26T04:44:27.150Z,97698.31
2023-04-26T04:46:54.062Z,97708.63
2023-04-26T04:49:21.071Z,97707.84
2023-04-26T04:51:48.215Z,97712.59
2023-04-26T04:54:16.808Z,97715.28
2023-04-26T04:56:44.699Z,97716.59
2023-04-26T04:59:11.996Z,97720.44
2023-04-26T05:01:38.938Z,97722.00
2023-04-26T05:04:07.008Z,97728.09
2023-04-26T05:06:34.198Z,97719.97
2023-04-26T05:09:01.892Z,97727.91
2023-04-26T05:11:28.775Z,97726.41
2023-04-26T05:13:55.966Z,97730.50
2023-04-26T05:16:23.112Z,97741.06
2023-04-26T05:18:50.093Z,97730.22
2023-04-26T05:21:17.191Z,97741.53
2023-04-26T05:23:44.099Z,97734.41
2023-04-26T05:26:15.825Z,97731.84
2023-04-26T05:28:42.969Z,97722.19
2023-04-26T05:31:11.424Z,97723.44
2023-04-26T05:33:38.684Z,97722.69
2023-04-26T05:36:06.084Z,97722.72
2023-04-26T05:38:32.983Z,97726.81
2023-04-26T05:40:59.822Z,97740.09
2023-04-26T05:43:26.658Z,97740.72
2023-04-26T05:45:54.629Z,97738.28
2023-04-26T05:48:23.006Z,97734.47
2023-04-26T05:50:50.760Z,97740.59
2023-04-26T05:53:19.249Z,97741.44
2023-04-26T05:55:46.247Z,97751.00
2023-04-26T05:58:13.214Z,97751.09
2023-04-26T06:00:40.152Z,97752.69
2023-04-26T06:03:07.362Z,97765.00
2023-04-26T06:05:34.560Z,97765.88
2023-04-26T06:08:01.875Z,97772.88
2023-04-26T06:10:29.371Z,97760.91
2023-04-26T06:12:56.453Z,97777.25
2023-04-26T06:15:23.330Z,97784.25
2023-04-26T06:17:50.246Z,97782.03
2023-04-26T06:20:17.148Z,97783.34
2023-04-26T06:22:44.021Z,97797.72
2023-04-26T06:25:11.050Z,97803.38
2023-04-26T06:27:39.413Z,97795.38
2023-04-26T06:30:08.044Z,97805.72
2023-04-26T06:32:35.083Z,97795.59
2023-04-26T06:35:02.169Z,97796.41
2023-04-26T06:37:29.045Z,97807.47
2023-04-26T06:39:55.952Z,97810.62
2023-04-26T06:42:22.841Z,97801.22
2023-04-26T06:44:49.746Z,97806.31
2023-04-26T06:47:16.603Z,97802.66
2023-04-26T06:49:43.601Z,97806.94
2023-04-26T06:52:10.539Z,97802.03
2023-04-26T06:54:45.932Z,97813.66
2023-04-26T06:57:16.898Z,97809.00
2023-04-26T06:59:43.560Z,97817.59
2023-04-26T07:02:10.585Z,97820.53
2023-04-26T07:04:37.750Z,97819.25
2023-04-26T07:07:04.854Z,97815.88
2023-04-26T07:09:31.896Z,97820.59
2023-04-26T07:11:58.850Z,97813.00
2023-04-26T07:14:25.707Z,97813.69
2023-04-26T07:16:52.552Z,97825.44
2023-04-26T07:19:19.928Z,97812.66
2023-04-26T07:21:46.770Z,97830.69
2023-04-26T07:24:13.891Z,97820.50
2023-04-26T07:26:41.566Z,97829.97
2023-04-26T07:29:08.450Z,97834.03
2023-04-26T07:31:36.130Z,97836.53
2023-04-26T07:34:03.247Z,97833.00
2023-04-26T07:36:30.177Z,97834.78
2023-04-26T07:38:58.042Z,97835.50
2023-04-26T07:41:24.920Z,97839.59
2023-04-26T07:43:51.996Z,97830.09
2023-04-26T07:46:19.225Z,97840.09
2023-04-26T07:48:46.142Z,97836.47
2023-04-26T07:51:13.597Z,97845.06
2023-04-26T07:53:41.360Z,97843.03
2023-04-26T07:56:09.107Z,97833.94
2023-04-26T07:58:37.042Z,97844.25
2023-04-26T08:01:04.395Z,97844.94
2023-04-26T08:03:31.730Z,97846.75
2023-04-26T08:06:02.307Z,97841.88
2023-04-26T08:08:29.365Z,97851.75
2023-04-26T08:10:56.583Z,97849.97
2023-04-26T08:13:23.446Z,97858.81
2023-04-26T08:15:50.435Z,97843.47
2023-04-26T08:18:17.767Z,97807.81
2023-04-26T08:20:44.771Z,97846.03
2023-04-26T08:23:11.700Z,97849.75
2023-04-26T08:25:38.670Z,97837.78
2023-04-26T08:28:05.662Z,97853.41
2023-04-26T08:30:32.623Z,97864.16
2023-04-26T08:32:59.556Z,97860.56
2023-04-26T08:35:26.551Z,97848.03
2023-04-26T08:37:53.406Z,97864.81
2023-04-26T08:40:24.999Z,97858.34
2023-04-26T08:42:53.740Z,97872.25
2023-04-26T08:45:21.747Z,97882.94
2023-04-26T08:47:50.592Z,97868.47
2023-04-26T08:50:21.081Z,97881.59
2023-04-26T08:52:50.528Z,97871.66
2023-04-26T08:55:18.664Z,97871.69
2023-04-26T08:57:49.951Z,97882.66
2023-04-26T09:00:18.369Z,97879.78
2023-04-26T09:02:50.329Z,97873.63
2023-04-26T09:05:17.661Z,97882.37
2023-04-26T09:07:48.198Z,97870.97
2023-04-26T09:10:22.560Z,97872.63
2023-04-26T09:12:53.761Z,97862.22
2023-04-26T09:15:24.758Z,97873.53
2023-04-26T09:17:52.356Z,97871.50
2023-04-26T09:20:31.303Z,97890.97
2023-04-26T09:23:06.844Z,97894.34
2023-04-26T09:25:34.135Z,97872.66
2023-04-26T09:28:02.225Z,97892.63
2023-04-26T09:30:29.259Z,97892.78
2023-04-26T09:32:58.463Z,97872.69
2023-04-26T09:35:29.338Z,97887.47
2023-04-26T09:38:09.701Z,97887.31
2023-04-26T09:40:41.902Z,97880.63
2023-04-26T09:43:12.623Z,97873.53
2023-04-26T09:45:46.655Z,97879.69
2023-04-26T09:48:18.030Z,97878.44
2023-04-26T09:50:48.236Z,97872.09
2023-04-26T09:53:31.212Z,97861.81
2023-04-26T09:56:15.867Z,97872.41
2023-04-26T09:58:52.610Z,97861.75
2023-04-26T10:01:20.335Z,97859.63
2023-04-26T10:03:47.789Z,97858.72
2023-04-26T10:06:15.060Z,97866.00
2023-04-26T10:08:42.167Z,97857.25
2023-04-26T10:11:13.125Z,97848.44
2023-04-26T10:13:41.745Z,97860.56
2023-04-26T10:16:10.237Z,97853.06
2023-04-26T10:18:37.860Z,97864.84
2023-04-26T10:21:20.798Z,97861.44
2023-04-26T10:23:49.292Z,97848.59
2023-04-26T10:26:49.745Z,97855.28
2023-04-26T10:29:16.693Z,97863.56
2023-04-26T10:32:02.390Z,97850.28
2023-04-26T10:34:33.370Z,97861.22
2023-04-26T10:37:10.401Z,97861.75
2023-04-26T10:39:38.236Z,97860.31
2023-04-26T10:42:37.851Z,97870.56
2023-04-26T10:45:26.081Z,97865.13
2023-04-26T10:48:27.965Z,97844.94
2023-04-26T10:51:12.219Z,97862.16
2023-04-26T10:53:44.917Z,97877.62
2023-04-26T10:56:41.297Z,97871.81
2023-04-26T11:01:42.200Z,97864.94
2023-04-26T11:04:10.698Z,97865.50
2023-04-26T11:07:07.744Z,97868.03
2023-04-26T11:09:42.530Z,97852.13
2023-04-26T11:12:14.001Z,97857.22
2023-04-26T11:14:46.343Z,97857.00
2023-04-26T11:17:13.413Z,97858.66
2023-04-26T11:19:41.651Z,97852.00
2023-04-26T11:22:08.854Z,97847.34
2023-04-26T11:24:44.947Z,97848.69
2023-04-26T11:27:12.304Z,97847.59
2023-04-26T11:29:39.568Z,97858.09
2023-04-26T11:32:07.220Z,97868.75
2023-04-26T11:34:35.676Z,97870.84
2023-04-26T11:37:05.119Z,97877.88
2023-04-26T11:39:36.166Z,97869.59
2023-04-26T11:42:10.298Z,97877.25
2023-04-26T11:44:37.889Z,97861.22
2023-04-26T11:47:06.220Z,97851.94
2023-04-26T11:49:33.915Z,97864.09
2023-04-26T11:52:01.723Z,97864.72
2023-04-26T11:54:33.498Z,97859.56
2023-04-26T11:57:00.501Z,97857.75
2023-04-26T11:59:29.613Z,97854.28
2023-04-26T12:02:00.741Z,97867.34
2023-04-26T12:04:30.423Z,97857.53
2023-04-26T12:06:58.153Z,97866.87
2023-04-26T12:09:28.097Z,97876.25
2023-04-26T12:12:02.230Z,97866.44
2023-04-26T12:14:37.291Z,97869.03
2023-04-26T12:17:06.409Z,97865.78
2023-04-26T12:19:40.309Z,97865.13
2023-04-26T12:22:07.934Z,97869.41
2023-04-26T12:24:37.098Z,97871.53
2023-04-26T12:27:06.255Z,97877.84
2023-04-26T12:29:33.212Z,97877.88
2023-04-26T12:32:00.512Z,97864.94
2023-04-26T12:34:27.550Z,97863.78
2023-04-26T12:36:55.022Z,97879.84
2023-04-26T12:39:21.897Z,97867.50
2023-04-26T12:41:49.364Z,97869.28
2023-04-26T12:44:16.350Z,97859.84
2023-04-26T12:46:43.321Z,97857.75
2023-04-26T12:49:10.358Z,97861.25
2023-04-26T12:51:37.214Z,97857.06
2023-04-26T12:54:04.268Z,97870.34
2023-04-26T12:56:31.213Z,97848.50
2023-04-26T12:58:58.127Z,97867.22
2023-04-26T13:01:25.196Z,97861.81
2023-04-26T13:03:52.360Z,97867.31
2023-04-26T13:06:19.357Z,97858.28
2023-04-26T13:08:46.256Z,97872.19
2023-04-26T13:11:13.144Z,97860.25
2023-04-26T13:13:43.708Z,97867.56
2023-04-26T13:16:13.046Z,97867.94
2023-04-26T13:18:40.674Z,97869.72
2023-04-26T13:21:07.880Z,97859.94
2023-04-26T13:23:34.913Z,97854.28
2023-04-26T13:26:02.069Z,97860.13
2023-04-26T13:28:28.936Z,97860.38
2023-04-26T13:30:56.192Z,97863.50
2023-04-26T13:33:23.274Z,97884.47
2023-04-26T13:35:50.184Z,97883.19
2023-04-26T13:38:17.483Z,97875.22
2023-04-26T13:40:44.898Z,97860.75
2023-04-26T13:43:11.835Z,97873.03
2023-04-26T13:45:38.952Z,97876.09
2023-04-26T13:48:06.055Z,97868.16
2023-04-26T13:50:32.990Z,97877.31
2023-04-26T13:53:00.135Z,97861.09
2023-04-26T13:55:27.044Z,97862.75
2023-04-26T13:57:53.944Z,97866.63
2023-04-26T14:00:21.252Z,97861.38
2023-04-26T14:02:49.442Z,97861.50
2023-04-26T14:05:16.761Z,97877.00
2023-04-26T14:07:43.881Z,97882.63
2023-04-26T14:10:11.150Z,97889.09
2023-04-26T14:12:38.049Z,97875.66
2023-04-26T14:15:06.354Z,97877.69
2023-04-26T14:17:33.665Z,97880.72
2023-04-26T14:20:00.833Z,97888.03
2023-04-26T14:22:27.845Z,97890.13
2023-04-26T14:24:54.729Z,97879.19
2023-04-26T14:27:21.592Z,97879.25
2023-04-26T14:29:48.432Z,97885.03
2023-04-26T14:32:15.392Z,97894.53
2023-04-26T14:34:43.190Z,97905.06
2023-04-26T14:37:10.597Z,97899.25
2023-04-26T14:39:37.680Z,97897.19
2023-04-26T14:42:04.924Z,97902.91
2023-04-26T14:44:31.812Z,97900.41
2023-04-26T14:46:58.745Z,97893.31
2023-04-26T14:49:25.905Z,97896.25
2023-04-26T14:51:53.655Z,97890.13
2023-04-26T14:54:21.350Z,97896.66
2023-04-26T14:56:48.914Z,97899.84
2023-04-26T14:59:16.301Z,97901.19
2023-04-26T15:01:43.438Z,97904.59
2023-04-26T15:04:10.526Z,97893.94
2023-04-26T15:06:37.552Z,97907.44
2023-04-26T15:09:04.735Z,97904.59
2023-04-26T15:11:31.592Z,97901.06
2023-04-26T15:13:58.433Z,97897.94
2023-04-26T15:16:25.375Z,97893.97
2023-04-26T15:18:52.381Z,97902.22
2023-04-26T15:21:19.931Z,97908.12
2023-04-26T15:23:46.840Z,97901.38
2023-04-26T15:26:14.520Z,97897.41
2023-04-26T15:28:41.465Z,97901.72
2023-04-26T15:31:09.836Z,97893.25
2023-04-26T15:33:37.013Z,97894.72
2023-04-26T15:36:04.175Z,97900.84
2023-04-26T15:38:31.066Z,97888.16
2023-04-26T15:40:57.917Z,97897.91
2023-04-26T15:43:24.864Z,97903.81
2023-04-26T15:45:51.932Z,97900.06
2023-04-26T15:48:18.937Z,97909.31
2023-04-26T15:50:46.421Z,97905.87
2023-04-26T15:53:13.313Z,97891.41
2023-04-26T15:55:40.213Z,97910.28
2023-04-26T15:58:07.257Z,97910.31
2023-04-26T16:00:34.408Z,97905.03
2023-04-26T16:03:02.190Z,97910.91
2023-04-26T16:05:29.299Z,97908.47
2023-04-26T16:07:56.466Z,97908.22
2023-04-26T16:10:24.058Z,97908.12
2023-04-26T16:12:51.131Z,97905.19
2023-04-26T16:15:18.020Z,97913.72
2023-04-26T16:17:45.060Z,97912.63
2023-04-26T16:20:12.181Z,97911.34
2023-04-26T16:22:39.128Z,97917.66
2023-04-26T16:25:07.168Z,97924.41
2023-04-26T16:27:34.301Z,97918.97
2023-04-26T16:30:01.390Z,97913.19
2023-04-26T16:32:30.731Z,97923.19
2023-04-26T16:34:57.629Z,97923.53
2023-04-26T16:37:24.566Z,97928.37
2023-04-26T16:39:55.783Z,97925.81
2023-04-26T16:42:22.850Z,97935.81
2023-04-26T16:44:49.741Z,97941.44
2023-04-26T16:47:16.619Z,97934.91
2023-04-26T16:49:43.570Z,97943.84
2023-04-26T16:52:10.488Z,97948.22
2023-04-26T16:54:37.470Z,97946.97
2023-04-26T16:57:04.689Z,97950.91
2023-04-26T16:59:31.611Z,97951.16
2023-04-26T17:01:58.614Z,97943.66
2023-04-26T17:04:26.479Z,97952.97
2023-04-26T17:06:54.698Z,97949.31
2023-04-26T17:09:21.571Z,97961.47
2023-04-26T17:11:49.997Z,97947.88
2023-04-26T17:14:16.915Z,97954.06
2023-04-26T17:16:44.215Z,97961.03
2023-04-26T17:19:11.387Z,97965.91
2023-04-26T17:21:38.257Z,97957.28
2023-04-26T17:24:05.340Z,97970.69
2023-04-26T17:26:32.256Z,97966.47
2023-04-26T17:28:59.228Z,97968.28
2023-04-26T17:31:26.342Z,97965.41
2023-04-26T17:33:53.269Z,97959.97
2023-04-26T17:36:20.974Z,97965.19
2023-04-26T17:38:48.690Z,97970.53
2023-04-26T17:41:18.203Z,97972.13
2023-04-26T17:43:45.518Z,97979.31
2023-04-26T17:46:12.591Z,97976.03
2023-04-26T17:48:39.762Z,97986.53
2023-04-26T17:51:06.843Z,97992.12
2023-04-26T17:53:36.897Z,97991.06
2023-04-26T17:56:07.372Z,97996.97
2023-04-26T17:58:34.529Z,97996.78
2023-04-26T18:01:01.635Z,98009.31
2023-04-26T18:03:31.702Z,98004.50
2023-04-26T18:05:58.789Z,98011.84
2023-04-26T18:08:25.978Z,98007.91
2023-04-26T18:10:54.150Z,98011.97
2023-04-26T18:13:21.179Z,98008.12
2023-04-26T18:15:48.370Z,98014.28
2023-04-26T18:18:15.364Z,98011.00
2023-04-26T18:20:42.364Z,98017.31
2023-04-26T18:23:09.234Z,98022.41
2023-04-26T18:25:36.426Z,98023.25
2023-04-26T18:28:04.520Z,98017.22
2023-04-26T18:30:34.223Z,98026.16
2023-04-26T18:33:01.181Z,98029.38
2023-04-26T18:35:28.161Z,98028.25
2023-04-26T18:37:55.117Z,98027.63
2023-04-26T18:40:22.065Z,98027.47
2023-04-26T18:42:48.921Z,98034.66
2023-04-26T18:45:16.055Z,98039.22
2023-04-26T18:47:42.943Z,98041.28
2023-04-26T18:50:10.092Z,98043.47
2023-04-26T18:52:39.687Z,98052.13
2023-04-26T18:55:07.770Z,98053.41
2023-04-26T18:57:34.612Z,98056.66
2023-04-26T19:00:01.844Z,98060.94
2023-04-26T19:02:28.908Z,98065.94
2023-04-26T19:04:56.083Z,98068.88
2023-04-26T19:07:23.762Z,98067.06
2023-04-26T19:09:54.702Z,98065.47
2023-04-26T19:12:22.484Z,98064.50
2023-04-26T19:14:49.339Z,98072.66
2023-04-26T19:17:16.369Z,98069.78
2023-04-26T19:19:43.442Z,98074.38
2023-04-26T19:22:10.463Z,98076.78
2023-04-26T19:24:37.406Z,98079.47
2023-04-26T19:27:06.593Z,98085.78
2023-04-26T19:29:33.452Z,98077.53
2023-04-26T19:32:00.533Z,98079.25
2023-04-26T19:34:28.109Z,98076.84
2023-04-26T19:36:55.069Z,98068.78
2023-04-26T19:39:23.553Z,98072.44
2023-04-26T19:41:51.406Z,98075.94
2023-04-26T19:44:20.438Z,98080.91
2023-04-26T19:46:47.366Z,98075.69
2023-04-26T19:49:14.334Z,98077.56
2023-04-26T19:51:41.232Z,98081.53
2023-04-26T19:54:08.070Z,98087.87
2023-04-26T19:56:34.706Z,98080.97
2023-04-26T19:59:01.579Z,98083.34
2023-04-26T20:01:28.710Z,98086.63
2023-04-26T20:03:55.983Z,98086.63
2023-04-26T20:06:22.953Z,98082.22
2023-04-26T20:08:49.834Z,98082.72
2023-04-26T20:11:17.610Z,98091.50
2023-04-26T20:13:44.743Z,98093.44
2023-04-26T20:16:12.852Z,98097.44
2023-04-26T20:18:39.991Z,98086.38
2023-04-26T20:21:06.915Z,98088.31
2023-04-26T20:23:34.024Z,98096.19
2023-04-26T20:26:01.068Z,98089.63
2023-04-26T20:28:27.952Z,98089.84
2023-04-26T20:30:54.977Z,98097.59
2023-04-26T20:33:21.938Z,98099.09
2023-04-26T20:35:49.434Z,98105.13
2023-04-26T20:38:16.310Z,98109.59
2023-04-26T20:40:43.361Z,98105.22
2023-04-26T20:43:12.103Z,98117.00
2023-04-26T20:45:41.029Z,98121.41
2023-04-26T20:48:08.325Z,98111.94
2023-04-26T20:50:36.603Z,98126.03
2023-04-26T20:53:04.368Z,98117.78
2023-04-26T20:55:31.251Z,98113.56
2023-04-26T20:57:58.114Z,98114.38
2023-04-26T21:00:25.075Z,98114.69
2023-04-26T21:02:52.182Z,98120.34
2023-04-26T21:05:19.093Z,98128.41
2023-04-26T21:07:45.969Z,98130.47
2023-04-26T21:10:12.883Z,98130.75
2023-04-26T21:12:41.825Z,98135.09
2023-04-26T21:15:09.128Z,98132.69
2023-04-26T21:17:36.486Z,98141.19
2023-04-26T21:20:04.379Z,98141.22
2023-04-26T21:22:31.266Z,98145.25
2023-04-26T21:24:58.124Z,98147.94
2023-04-26T21:27:25.100Z,98155.19
2023-04-26T21:29:51.972Z,98155.00
2023-04-26T21:32:18.804Z,98154.69
2023-04-26T21:34:45.554Z,98150.56
2023-04-26T21:37:12.444Z,98151.06
2023-04-26T21:39:39.358Z,98159.19
2023-04-26T21:42:06.324Z,98146.41
2023-04-26T21:44:33.160Z,98153.69
2023-04-26T21:46:59.964Z,98162.66
2023-04-26T21:49:26.940Z,98162.31
2023-04-26T21:51:53.625Z,98161.31
2023-04-26T21:54:20.564Z,98164.28
2023-04-26T21:56:47.404Z,98171.34
2023-04-26T21:59:14.758Z,98173.19
2023-04-26T22:01:41.636Z,98166.28
2023-04-26T22:04:08.412Z,98169.28
2023-04-26T22:06:35.299Z,98163.63
2023-04-26T22:09:01.972Z,98166.00
2023-04-26T22:11:28.801Z,98177.84
2023-04-26T22:13:55.582Z,98177.00
2023-04-26T22:16:22.490Z,98182.53
2023-04-26T22:18:49.446Z,98177.56
2023-04-26T22:21:16.279Z,98178.50
2023-04-26T22:23:42.944Z,98178.84
2023-04-26T22:26:09.773Z,98181.88
2023-04-26T22:28:36.466Z,98174.09
2023-04-26T22:31:03.528Z,98187.53
2023-04-26T22:33:30.403Z,98195.94
2023-04-26T22:35:58.203Z,98198.19
2023-04-26T22:38:25.612Z,98198.66
2023-04-26T22:40:52.754Z,98198.94
2023-04-26T22:43:19.660Z,98211.38
2023-04-26T22:45:46.541Z,98208.84
2023-04-26T22:48:13.515Z,98215.94
2023-04-26T22:50:40.704Z,98203.13
2023-04-26T22:53:08.351Z,98215.84
2023-04-26T22:55:35.241Z,98211.06
2023-04-26T22:58:02.137Z,98214.81
2023-04-26T23:00:29.013Z,98215.97
2023-04-26T23:02:56.087Z,98209.72
2023-04-26T23:05:23.061Z,98218.00
2023-04-26T23:07:49.982Z,98218.41
2023-04-26T23:10:16.896Z,98220.25
2023-04-26T23:12:43.793Z,98219.72
2023-04-26T23:15:11.748Z,98217.13
2023-04-26T23:17:39.008Z,98226.16
2023-04-26T23:20:12.365Z,98231.91
2023-04-26T23:22:40.604Z,98240.87
2023-04-26T23:25:08.949Z,98243.25
2023-04-26T23:27:36.216Z,98241.06
2023-04-26T23:30:03.742Z,98241.84
2023-04-26T23:32:31.118Z,98229.81
2023-04-26T23:34:58.018Z,98226.09
2023-04-26T23:37:25.050Z,98235.22
2023-04-26T23:39:52.305Z,98233.88
2023-04-26T23:42:19.175Z,98230.88
2023-04-26T23:44:46.168Z,98239.50
2023-04-26T23:47:13.102Z,98235.13
2023-04-26T23:49:39.967Z,98241.28
2023-04-26T23:52:07.328Z,98225.75
2023-04-26T23:54:34.234Z,98223.94
2023-04-26T23:57:01.228Z,98227.00
2023-04-26T23:59:28.124Z,98219.38
